Terminal Aerodrome Forecast
Issued by NWS

Current Version | Previous Version | Graphics & Text | Print | Product List | Glossary On
Versions: 1 2 3 4 5 6 7 8 9 10 11 12 13 14 15 16 17 18 19 20 21 22 23 24 25 26 27 28 29 30 31 32
000
FTUS41 KRNK 201739
TAFLWB
TAF
KLWB 201739Z 2018/2118 29008KT P6SM SCT250
     FM210000 VRB03KT P6SM OVC250
     FM210500 04003KT P6SM OVC050
     FM210800 04004KT 4SM -RA OVC025
     FM211000 09006KT 2SM -RA BR SCT007 OVC015=

USA.gov is the U.S. government's official web portal to all federal, state and local government web resources and services.